Time;durP1;ratioP1;P1;durP2;ratioP2;P2;SDS_P1;SDS_P2;PMS_P1;PMS_P2;Temp;Humidity;BMP_temperature;BMP_pressure;BME280_temperature;BME280_humidity;BME280_pressure;Samples;Min_cycle;Max_cycle;Signal;HPM_P1;HPM_P2
2023/06/26 00:00:27;;;;;;;12.30;6.60;;;23.90;84.10;;;;;;5021407;28;20057;-71
2023/06/26 00:02:53;;;;;;;10.15;6.93;;;23.90;85.60;;;;;;5023136;28;20323;-71
2023/06/26 00:05:18;;;;;;;14.32;6.63;;;23.80;87.20;;;;;;5027142;28;20343;-71
2023/06/26 00:07:44;;;;;;;12.45;6.68;;;23.70;89.00;;;;;;5028351;28;20081;-71
2023/06/26 00:10:10;;;;;;;9.70;6.28;;;23.60;90.20;;;;;;5025657;28;20025;-71
2023/06/26 00:12:36;;;;;;;9.00;6.70;;;23.60;91.30;;;;;;5027445;28;20071;-72
2023/06/26 00:15:01;;;;;;;10.52;6.38;;;23.40;92.40;;;;;;5026419;28;20381;-72
2023/06/26 00:17:27;;;;;;;11.48;6.50;;;23.40;93.40;;;;;;5028442;28;20057;-71
2023/06/26 00:19:53;;;;;;;12.68;6.18;;;23.30;94.50;;;;;;5030439;28;20547;-71
2023/06/26 00:22:18;;;;;;;12.93;6.50;;;23.30;95.50;;;;;;5024578;28;20018;-71
2023/06/26 00:24:44;;;;;;;10.93;5.60;;;23.20;96.60;;;;;;5029665;28;20045;-72
2023/06/26 00:27:10;;;;;;;15.60;6.15;;;23.10;97.80;;;;;;5029133;28;20026;-71
2023/06/26 00:29:36;;;;;;;11.10;6.03;;;23.00;99.10;;;;;;5023076;28;20033;-71
2023/06/26 00:32:01;;;;;;;12.48;5.38;;;22.90;99.90;;;;;;5033198;28;20029;-71
2023/06/26 00:34:27;;;;;;;12.48;5.57;;;22.80;99.90;;;;;;5033161;28;20013;-71
2023/06/26 00:36:53;;;;;;;13.38;6.10;;;22.80;99.90;;;;;;5033373;28;20037;-71
2023/06/26 00:39:18;;;;;;;13.88;5.85;;;22.70;99.90;;;;;;5022317;28;20013;-71
2023/06/26 00:41:44;;;;;;;12.80;5.80;;;22.60;99.90;;;;;;5033145;28;20021;-71
2023/06/26 00:44:10;;;;;;;16.63;6.47;;;22.60;99.90;;;;;;5043056;28;20025;-71
2023/06/26 00:46:35;;;;;;;13.45;6.00;;;22.50;99.90;;;;;;5027857;28;20029;-71
2023/06/26 00:49:03;;;;;;;14.07;5.47;;;22.30;99.90;;;;;;5014069;28;20514;-71
2023/06/26 00:51:30;;;;;;;14.20;5.80;;;22.30;99.90;;;;;;5020535;28;20439;-72
2023/06/26 00:53:57;;;;;;;16.63;5.53;;;22.20;99.90;;;;;;5029789;28;20038;-71
2023/06/26 00:56:23;;;;;;;16.70;6.32;;;22.20;99.90;;;;;;5033132;28;20025;-71
2023/06/26 00:58:49;;;;;;;16.70;6.03;;;22.10;99.90;;;;;;5032778;28;20026;-71
2023/06/26 01:01:17;;;;;;;15.38;5.88;;;22.10;99.90;;;;;;5025337;28;20139;-71
2023/06/26 01:03:44;;;;;;;17.45;5.93;;;22.00;99.90;;;;;;5016744;28;20026;-71
2023/06/26 01:06:12;;;;;;;21.30;6.40;;;22.00;99.90;;;;;;5028324;28;20030;-71
2023/06/26 01:08:39;;;;;;;19.42;6.18;;;21.90;99.90;;;;;;5027602;28;20021;-74
2023/06/26 01:11:05;;;;;;;17.05;5.63;;;21.90;99.90;;;;;;5027448;28;20773;-72
2023/06/26 01:13:31;;;;;;;16.90;6.07;;;22.00;99.90;;;;;;5031456;28;20021;-71
2023/06/26 01:15:58;;;;;;;16.55;6.30;;;21.90;99.90;;;;;;5017918;28;20033;-71
2023/06/26 01:18:25;;;;;;;18.90;6.43;;;21.90;99.90;;;;;;5020858;28;20469;-71
2023/06/26 01:20:53;;;;;;;12.95;5.95;;;21.90;99.90;;;;;;5030678;28;20021;-71
2023/06/26 01:23:48;;;;;;;21.75;5.97;;;21.90;99.90;;;;;;5019751;28;20490;-72
2023/06/26 01:26:20;;;;;;;16.55;6.63;;;21.90;99.90;;;;;;5032431;28;20037;-71
2023/06/26 01:28:47;;;;;;;18.25;6.70;;;21.90;99.90;;;;;;5020045;28;20109;-71
2023/06/26 01:31:13;;;;;;;15.52;5.88;;;21.80;99.90;;;;;;5032098;28;20076;-72
2023/06/26 01:33:41;;;;;;;18.00;6.20;;;21.90;99.90;;;;;;5032291;28;20431;-72
2023/06/26 01:36:07;;;;;;;21.55;6.82;;;21.90;99.90;;;;;;5032102;28;20026;-72
2023/06/26 01:38:34;;;;;;;15.88;6.28;;;21.90;99.90;;;;;;5031848;28;20112;-71
2023/06/26 01:41:00;;;;;;;25.15;7.10;;;21.90;99.90;;;;;;5031937;28;20100;-72
2023/06/26 01:43:43;;;;;;;17.73;6.47;;;21.90;99.90;;;;;;5032075;28;20417;-72
2023/06/26 01:46:21;;;;;;;19.05;6.07;;;21.90;99.90;;;;;;5031861;28;20052;-71
2023/06/26 01:49:11;;;;;;;22.45;6.18;;;21.80;99.90;;;;;;5032003;28;20541;-72
2023/06/26 01:51:45;;;;;;;20.15;5.95;;;21.80;99.90;;;;;;5031861;28;20021;-71
2023/06/26 01:54:16;;;;;;;18.42;6.00;;;21.80;99.90;;;;;;5031762;28;20179;-71
2023/06/26 01:56:44;;;;;;;20.35;5.97;;;21.70;99.90;;;;;;5021988;28;20117;-72
2023/06/26 01:59:13;;;;;;;17.38;6.45;;;21.80;99.90;;;;;;5022152;28;20026;-71
2023/06/26 02:01:39;;;;;;;17.38;5.65;;;21.80;99.90;;;;;;5023818;28;20166;-71
2023/06/26 02:04:05;;;;;;;21.10;6.63;;;21.80;99.90;;;;;;5029258;28;20049;-72
2023/06/26 02:06:30;;;;;;;18.40;6.15;;;21.80;99.90;;;;;;5027102;28;20457;-72
2023/06/26 02:08:56;;;;;;;17.38;5.97;;;21.80;99.90;;;;;;5020356;28;20060;-72
2023/06/26 02:11:22;;;;;;;19.77;5.93;;;21.70;99.90;;;;;;5030336;28;20088;-72
2023/06/26 02:13:48;;;;;;;20.08;6.38;;;21.70;99.90;;;;;;5025598;28;20025;-72
2023/06/26 02:16:14;;;;;;;19.50;6.07;;;21.60;99.90;;;;;;5023580;28;20029;-71
2023/06/26 02:18:39;;;;;;;15.60;5.93;;;21.60;99.90;;;;;;5020742;28;20105;-71
2023/06/26 02:21:06;;;;;;;26.98;6.75;;;21.50;99.90;;;;;;5015979;28;20025;-72
2023/06/26 02:23:32;;;;;;;21.65;5.93;;;21.50;99.90;;;;;;5027914;28;20022;-72
2023/06/26 02:25:58;;;;;;;19.85;6.25;;;21.50;99.90;;;;;;5026401;28;20029;-72
2023/06/26 02:28:23;;;;;;;21.95;6.68;;;21.40;99.90;;;;;;5026717;28;20372;-72
2023/06/26 02:30:49;;;;;;;21.73;6.95;;;21.40;99.90;;;;;;5024207;28;20022;-72
2023/06/26 02:33:14;;;;;;;17.67;6.22;;;21.30;99.90;;;;;;5022626;28;20033;-72
2023/06/26 02:35:40;;;;;;;18.83;5.97;;;21.30;99.90;;;;;;5031394;28;20051;-72
2023/06/26 02:38:06;;;;;;;22.27;6.35;;;21.20;99.90;;;;;;5017603;28;20029;-72
2023/06/26 02:40:33;;;;;;;27.00;6.88;;;21.20;99.90;;;;;;5020091;28;20425;-72
2023/06/26 02:42:58;;;;;;;22.90;6.25;;;21.20;99.90;;;;;;5029262;28;20461;-72
2023/06/26 02:45:24;;;;;;;23.38;6.10;;;21.10;99.90;;;;;;5021954;28;20049;-72
2023/06/26 02:47:49;;;;;;;25.08;6.80;;;21.10;99.90;;;;;;5020440;28;20022;-72
2023/06/26 02:50:15;;;;;;;21.27;6.65;;;21.10;99.90;;;;;;5031310;28;20022;-72
2023/06/26 02:52:41;;;;;;;22.90;6.35;;;21.00;99.90;;;;;;5030815;28;20029;-72
2023/06/26 02:55:07;;;;;;;23.58;6.80;;;20.90;99.90;;;;;;5025160;28;20387;-72
2023/06/26 02:57:32;;;;;;;25.23;6.82;;;20.90;99.90;;;;;;5026287;28;20095;-72
2023/06/26 02:59:58;;;;;;;21.13;6.50;;;20.80;99.90;;;;;;5025214;28;20030;-71
2023/06/26 03:02:23;;;;;;;21.48;6.85;;;20.80;99.90;;;;;;5029020;28;20360;-71
2023/06/26 03:04:49;;;;;;;21.40;6.65;;;20.70;99.90;;;;;;5030679;28;20025;-72
2023/06/26 03:07:15;;;;;;;27.15;6.82;;;20.60;99.90;;;;;;5021401;28;20021;-72
2023/06/26 03:09:41;;;;;;;24.95;6.78;;;20.60;99.90;;;;;;5027324;28;20037;-72
2023/06/26 03:12:07;;;;;;;28.50;7.45;;;20.60;99.90;;;;;;5013779;28;20015;-72
2023/06/26 03:14:33;;;;;;;27.13;6.72;;;20.60;99.90;;;;;;5021961;28;20061;-72
2023/06/26 03:17:03;;;;;;;26.52;6.47;;;20.60;99.90;;;;;;5018162;28;20049;-72
2023/06/26 03:19:28;;;;;;;19.00;6.90;;;20.60;99.90;;;;;;5025952;28;20345;-72
2023/06/26 03:21:55;;;;;;;23.80;6.15;;;20.50;99.90;;;;;;5027213;28;20057;-72
2023/06/26 03:24:20;;;;;;;23.38;6.53;;;20.50;99.90;;;;;;5024827;28;20040;-72
2023/06/26 03:26:46;;;;;;;19.50;6.43;;;20.50;99.90;;;;;;5026160;28;20033;-72
2023/06/26 03:29:11;;;;;;;20.83;6.38;;;20.60;99.90;;;;;;5018350;28;20053;-72
2023/06/26 03:31:37;;;;;;;18.73;6.25;;;20.50;99.90;;;;;;5032225;28;20135;-71
2023/06/26 03:34:03;;;;;;;20.13;5.85;;;20.50;99.90;;;;;;5028600;28;20354;-72
2023/06/26 03:36:28;;;;;;;20.80;6.25;;;20.50;99.90;;;;;;5034031;28;20030;-72
2023/06/26 03:38:56;;;;;;;24.02;6.30;;;20.40;99.90;;;;;;5033998;28;20093;-71
2023/06/26 03:41:23;;;;;;;17.38;6.30;;;20.40;99.90;;;;;;5028524;28;20022;-72
2023/06/26 03:43:48;;;;;;;15.68;6.10;;;20.40;99.90;;;;;;5034406;28;20504;-71
2023/06/26 03:46:14;;;;;;;23.52;6.45;;;20.40;99.90;;;;;;5032122;28;20024;-71
2023/06/26 03:48:40;;;;;;;17.95;6.10;;;20.30;99.90;;;;;;5026120;28;20024;-72
2023/06/26 03:51:07;;;;;;;21.30;6.47;;;20.30;99.90;;;;;;5032583;28;20092;-72
2023/06/26 03:53:33;;;;;;;20.55;6.28;;;20.30;99.90;;;;;;5033652;28;20087;-71
2023/06/26 03:55:58;;;;;;;17.60;6.00;;;20.30;99.90;;;;;;5031572;28;20021;-71
2023/06/26 03:58:25;;;;;;;18.90;5.40;;;20.30;99.90;;;;;;5023729;28;20028;-71
2023/06/26 04:00:51;;;;;;;19.13;5.95;;;20.20;99.90;;;;;;5033791;28;20026;-72
2023/06/26 04:03:16;;;;;;;17.63;5.63;;;20.20;99.90;;;;;;5027237;28;20025;-72
2023/06/26 04:05:42;;;;;;;16.75;5.85;;;20.20;99.90;;;;;;5030568;28;20021;-71
2023/06/26 04:08:08;;;;;;;22.20;5.95;;;20.10;99.90;;;;;;5033433;28;20113;-71
2023/06/26 04:10:36;;;;;;;18.50;5.80;;;20.10;99.90;;;;;;5033654;28;20493;-72
2023/06/26 04:13:01;;;;;;;16.73;5.60;;;20.10;99.90;;;;;;5033440;28;20372;-71
2023/06/26 04:15:27;;;;;;;20.95;5.65;;;20.10;99.90;;;;;;5033296;28;20039;-72
2023/06/26 04:17:52;;;;;;;20.48;6.10;;;20.00;99.90;;;;;;5024455;28;20029;-71
2023/06/26 04:20:18;;;;;;;17.52;5.68;;;20.00;99.90;;;;;;5027481;28;20101;-72
2023/06/26 04:22:44;;;;;;;16.77;5.40;;;20.00;99.90;;;;;;5033156;28;20550;-72
2023/06/26 04:25:11;;;;;;;12.32;4.93;;;20.00;99.90;;;;;;5029627;28;20025;-72
2023/06/26 04:27:37;;;;;;;14.77;5.15;;;20.00;99.90;;;;;;5032653;28;20045;-74
2023/06/26 04:30:03;;;;;;;10.27;4.32;;;20.10;99.90;;;;;;5031874;28;20053;-74
2023/06/26 04:32:29;;;;;;;11.77;4.57;;;20.00;99.90;;;;;;5021573;28;20021;-74
2023/06/26 04:34:54;;;;;;;9.95;4.55;;;20.00;99.90;;;;;;5024270;28;20022;-74
2023/06/26 04:37:20;;;;;;;12.45;4.80;;;20.00;99.90;;;;;;5026753;28;20032;-73
2023/06/26 04:39:45;;;;;;;12.95;5.00;;;20.10;99.90;;;;;;5032627;28;20104;-73
2023/06/26 04:42:12;;;;;;;12.00;4.38;;;20.10;99.90;;;;;;5032441;28;20064;-73
2023/06/26 04:44:38;;;;;;;13.15;4.50;;;20.00;99.90;;;;;;5019785;28;20028;-73
2023/06/26 04:47:04;;;;;;;18.30;5.03;;;20.10;99.90;;;;;;5025654;28;20178;-73
2023/06/26 04:49:29;;;;;;;11.50;4.47;;;20.00;99.90;;;;;;5032675;28;20486;-73
2023/06/26 04:51:56;;;;;;;15.77;5.10;;;20.10;99.90;;;;;;5032672;28;20022;-73
2023/06/26 04:54:22;;;;;;;10.40;4.47;;;20.00;99.90;;;;;;5033033;28;20136;-73
2023/06/26 04:56:48;;;;;;;10.63;4.65;;;20.00;99.90;;;;;;5022639;28;20033;-73
2023/06/26 04:59:14;;;;;;;10.00;4.40;;;20.00;99.90;;;;;;5016793;28;20022;-74
2023/06/26 05:01:40;;;;;;;13.20;4.93;;;20.00;99.90;;;;;;5032527;28;20014;-74
2023/06/26 05:04:06;;;;;;;12.18;4.65;;;20.00;99.90;;;;;;5018711;28;20167;-73
2023/06/26 05:06:32;;;;;;;12.52;4.75;;;19.90;99.90;;;;;;5023837;28;20041;-73
2023/06/26 05:08:57;;;;;;;10.02;4.97;;;19.90;99.90;;;;;;5027676;28;20048;-73
2023/06/26 05:11:24;;;;;;;8.90;4.22;;;20.00;99.90;;;;;;5031895;28;20104;-73
2023/06/26 05:13:50;;;;;;;8.68;4.15;;;20.00;99.90;;;;;;5031659;28;20021;-73
2023/06/26 05:16:16;;;;;;;11.10;4.10;;;20.00;99.90;;;;;;5021469;28;20499;-73
2023/06/26 05:18:41;;;;;;;7.72;4.07;;;20.00;99.90;;;;;;5023820;28;20093;-73
2023/06/26 05:21:07;;;;;;;11.40;3.92;;;20.00;99.90;;;;;;5029967;28;20026;-73
2023/06/26 05:23:34;;;;;;;7.07;3.40;;;20.00;99.90;;;;;;5017877;28;20021;-73
2023/06/26 05:26:03;;;;;;;11.98;3.45;;;20.10;99.90;;;;;;5021839;28;20108;-74
2023/06/26 05:28:31;;;;;;;13.73;3.88;;;20.10;99.90;;;;;;5031191;28;20521;-74
2023/06/26 05:30:57;;;;;;;5.93;2.95;;;20.10;99.90;;;;;;5031853;28;20041;-73
2023/06/26 05:33:24;;;;;;;9.85;3.08;;;20.10;99.90;;;;;;5029445;28;20104;-73
2023/06/26 05:35:52;;;;;;;9.70;3.05;;;20.10;99.90;;;;;;5019509;28;20030;-73
2023/06/26 05:38:18;;;;;;;7.55;2.40;;;20.20;99.90;;;;;;5032067;28;20456;-73
2023/06/26 05:40:44;;;;;;;7.18;2.45;;;20.10;99.90;;;;;;5019296;28;20029;-73
2023/06/26 05:43:10;;;;;;;6.43;2.47;;;20.00;99.90;;;;;;5031847;28;20026;-73
2023/06/26 05:45:36;;;;;;;9.80;2.30;;;20.00;99.90;;;;;;5024245;28;20076;-73
2023/06/26 05:48:02;;;;;;;10.18;2.10;;;19.90;99.90;;;;;;5027868;28;20026;-73
2023/06/26 05:50:28;;;;;;;7.57;2.00;;;19.90;99.90;;;;;;5028080;28;20053;-73
2023/06/26 05:52:54;;;;;;;7.38;1.70;;;19.80;99.90;;;;;;5031208;28;20067;-74
2023/06/26 05:55:20;;;;;;;11.98;1.90;;;19.90;99.90;;;;;;5031471;28;20031;-74
2023/06/26 05:57:47;;;;;;;9.55;2.08;;;19.90;99.90;;;;;;5031657;28;20034;-74
2023/06/26 06:00:13;;;;;;;8.95;2.13;;;19.90;99.90;;;;;;5030092;28;20037;-74
2023/06/26 06:02:41;;;;;;;9.20;1.80;;;19.90;99.90;;;;;;5021748;28;20056;-74
2023/06/26 06:05:07;;;;;;;8.77;1.77;;;19.80;99.90;;;;;;5031940;28;20066;-74
2023/06/26 06:07:33;;;;;;;7.10;1.60;;;19.80;99.90;;;;;;5031568;28;20013;-74
2023/06/26 06:10:00;;;;;;;8.98;1.70;;;19.70;99.90;;;;;;5030800;28;20101;-74
2023/06/26 06:12:25;;;;;;;8.30;1.80;;;19.70;99.90;;;;;;5031695;28;20024;-74
2023/06/26 06:14:52;;;;;;;8.60;1.90;;;19.70;99.90;;;;;;5031432;28;20428;-74
2023/06/26 06:17:18;;;;;;;9.68;1.83;;;19.80;99.90;;;;;;5027594;28;20076;-73
2023/06/26 06:19:44;;;;;;;6.40;1.67;;;19.90;99.90;;;;;;5026642;28;20029;-74
2023/06/26 06:22:10;;;;;;;11.20;2.17;;;20.00;99.90;;;;;;5031038;28;20049;-73
2023/06/26 06:24:36;;;;;;;8.00;1.75;;;20.00;99.90;;;;;;5032367;28;20120;-74
2023/06/26 06:27:01;;;;;;;10.13;2.10;;;19.90;99.90;;;;;;5031304;28;20029;-73
2023/06/26 06:29:27;;;;;;;5.75;1.67;;;19.80;99.90;;;;;;5030987;28;20717;-73
2023/06/26 06:31:52;;;;;;;11.00;2.38;;;19.80;99.90;;;;;;5031356;28;20047;-73
2023/06/26 06:34:18;;;;;;;7.80;2.00;;;19.80;99.90;;;;;;5031124;28;20380;-74
2023/06/26 06:36:44;;;;;;;11.13;1.80;;;19.80;99.90;;;;;;5018149;28;20029;-74
2023/06/26 06:39:09;;;;;;;11.52;2.15;;;19.90;99.90;;;;;;5031316;28;20030;-74
2023/06/26 06:41:35;;;;;;;8.40;2.13;;;20.00;99.90;;;;;;5031209;28;20017;-74
2023/06/26 06:44:00;;;;;;;7.65;2.00;;;20.10;99.90;;;;;;5031300;28;20046;-74
2023/06/26 06:46:27;;;;;;;10.68;2.00;;;20.10;99.90;;;;;;5023906;28;20029;-74
2023/06/26 06:48:53;;;;;;;12.77;2.13;;;20.20;99.90;;;;;;5031169;28;20036;-74
2023/06/26 06:51:18;;;;;;;8.98;2.00;;;20.30;99.90;;;;;;5022163;28;20018;-73
2023/06/26 06:53:44;;;;;;;7.88;2.13;;;20.40;99.90;;;;;;5025972;28;20491;-74
2023/06/26 06:56:10;;;;;;;7.40;2.10;;;20.40;99.90;;;;;;5030857;28;20025;-74
2023/06/26 06:58:35;;;;;;;11.40;2.42;;;20.50;99.90;;;;;;5031149;28;20033;-74
2023/06/26 07:01:02;;;;;;;10.95;2.17;;;20.50;99.90;;;;;;5031044;28;20064;-73
2023/06/26 07:03:28;;;;;;;10.13;2.10;;;20.50;99.90;;;;;;5020315;28;20026;-73
2023/06/26 07:05:55;;;;;;;9.35;1.83;;;20.50;99.90;;;;;;5031115;28;20048;-72
2023/06/26 07:08:21;;;;;;;12.15;2.10;;;20.50;99.90;;;;;;5034949;28;20464;-73
2023/06/26 07:10:46;;;;;;;11.35;1.95;;;20.40;99.90;;;;;;5023645;28;20080;-73
2023/06/26 07:13:12;;;;;;;8.02;2.17;;;20.30;99.90;;;;;;5032802;28;20017;-74
2023/06/26 07:15:37;;;;;;;8.15;2.20;;;20.30;99.90;;;;;;5034748;28;20036;-73
2023/06/26 07:18:04;;;;;;;12.50;2.05;;;20.40;99.90;;;;;;5034988;28;20057;-74
2023/06/26 07:20:29;;;;;;;9.80;2.05;;;20.40;99.90;;;;;;5034893;28;20029;-73
2023/06/26 07:22:55;;;;;;;8.60;2.30;;;20.50;99.90;;;;;;5034922;28;20021;-74
2023/06/26 07:25:21;;;;;;;10.23;1.92;;;20.50;99.90;;;;;;5034506;28;20051;-74
2023/06/26 07:27:46;;;;;;;11.25;2.10;;;20.60;99.90;;;;;;5034760;28;20025;-74
2023/06/26 07:30:12;;;;;;;10.15;2.13;;;20.70;99.90;;;;;;5031283;28;20058;-74
2023/06/26 07:32:40;;;;;;;12.20;2.15;;;20.80;99.90;;;;;;5023962;28;20092;-74
2023/06/26 07:35:06;;;;;;;8.10;1.95;;;20.80;99.90;;;;;;5033394;28;20024;-74
2023/06/26 07:37:31;;;;;;;10.32;2.00;;;20.90;99.90;;;;;;5033919;28;20017;-74
2023/06/26 07:39:57;;;;;;;10.63;1.83;;;21.00;99.90;;;;;;5034446;28;20377;-74
2023/06/26 07:42:23;;;;;;;15.38;2.20;;;21.20;99.90;;;;;;5025172;28;20034;-74
2023/06/26 07:44:48;;;;;;;5.55;1.80;;;21.30;99.90;;;;;;5020873;28;20080;-74
2023/06/26 07:47:14;;;;;;;9.05;2.00;;;21.30;99.90;;;;;;5034125;28;20030;-74
2023/06/26 07:49:40;;;;;;;7.18;1.80;;;21.40;99.90;;;;;;5028916;28;20029;-74
2023/06/26 07:52:06;;;;;;;8.10;1.95;;;21.40;99.90;;;;;;5032259;28;20428;-74
2023/06/26 07:54:32;;;;;;;10.35;1.77;;;21.50;99.90;;;;;;5031174;28;20056;-74
2023/06/26 07:57:03;;;;;;;7.28;1.83;;;21.60;99.90;;;;;;5033748;28;20026;-74
2023/06/26 07:59:30;;;;;;;6.97;1.88;;;21.70;99.90;;;;;;5032246;28;20040;-73
2023/06/26 08:01:56;;;;;;;6.10;2.03;;;21.90;99.90;;;;;;5033578;28;20033;-75
2023/06/26 08:04:24;;;;;;;7.82;1.60;;;21.90;99.90;;;;;;5033691;28;20100;-74
2023/06/26 08:06:52;;;;;;;5.22;1.48;;;22.00;99.90;;;;;;5022896;28;20032;-74
2023/06/26 08:09:19;;;;;;;9.27;1.88;;;22.00;99.90;;;;;;5033465;28;20469;-74
2023/06/26 08:11:45;;;;;;;6.15;2.00;;;22.10;99.90;;;;;;5033062;28;20093;-74
2023/06/26 08:14:14;;;;;;;8.60;2.00;;;22.10;99.90;;;;;;5033682;28;20033;-74
2023/06/26 08:16:40;;;;;;;8.57;2.05;;;22.20;99.90;;;;;;5027553;28;20034;-74
2023/06/26 08:19:06;;;;;;;10.25;1.80;;;22.40;99.90;;;;;;5027566;28;20027;-74
2023/06/26 08:21:32;;;;;;;5.88;2.15;;;22.40;99.90;;;;;;5033278;28;20116;-74
2023/06/26 08:23:57;;;;;;;9.32;2.00;;;22.50;99.90;;;;;;5033318;28;20025;-74
2023/06/26 08:26:23;;;;;;;7.63;2.03;;;22.40;99.90;;;;;;5019774;28;20030;-77
2023/06/26 08:28:48;;;;;;;8.05;2.20;;;22.40;99.90;;;;;;5027938;28;20071;-74
2023/06/26 08:31:14;;;;;;;10.18;2.10;;;22.40;99.90;;;;;;5021617;28;20017;-73
2023/06/26 08:33:40;;;;;;;6.22;2.15;;;22.50;99.90;;;;;;5031065;28;20026;-74
2023/06/26 08:36:05;;;;;;;7.25;1.90;;;22.60;99.90;;;;;;5033332;28;20084;-74
2023/06/26 08:38:31;;;;;;;8.50;2.03;;;22.60;99.90;;;;;;5032898;28;20082;-74
2023/06/26 08:40:56;;;;;;;6.78;1.90;;;22.70;99.90;;;;;;5033075;28;20076;-74
2023/06/26 08:43:22;;;;;;;8.18;2.17;;;22.60;99.90;;;;;;5033050;28;20048;-74
2023/06/26 08:45:51;;;;;;;7.28;2.00;;;22.60;99.90;;;;;;5032880;28;20032;-74
2023/06/26 08:48:17;;;;;;;11.20;2.10;;;22.60;99.90;;;;;;5026963;28;20014;-74
2023/06/26 08:50:43;;;;;;;8.55;1.90;;;22.80;99.90;;;;;;5033041;28;20474;-74
2023/06/26 08:53:27;;;;;;;7.18;1.40;;;22.80;99.40;;;;;;5032464;28;20045;-74
2023/06/26 08:55:54;;;;;;;5.40;1.60;;;23.00;98.60;;;;;;5022302;28;20033;-74
2023/06/26 08:58:20;;;;;;;6.13;1.58;;;23.20;98.00;;;;;;5032852;28;20425;-74
2023/06/26 09:00:46;;;;;;;4.60;1.60;;;23.20;97.70;;;;;;5032752;28;20060;-74
2023/06/26 09:03:13;;;;;;;9.85;1.80;;;23.20;97.10;;;;;;5032622;28;20021;-75
2023/06/26 09:05:39;;;;;;;7.53;2.13;;;23.20;97.10;;;;;;5032924;28;20021;-73
2023/06/26 09:08:05;;;;;;;8.85;2.08;;;23.30;97.40;;;;;;5032708;28;20691;-74
2023/06/26 09:10:31;;;;;;;11.70;2.28;;;23.40;97.20;;;;;;5032648;28;20445;-74
2023/06/26 09:12:57;;;;;;;7.13;1.80;;;23.30;97.20;;;;;;5032535;28;20071;-74
2023/06/26 09:15:23;;;;;;;8.50;2.13;;;23.20;97.30;;;;;;5031196;28;20029;-74
2023/06/26 09:17:49;;;;;;;7.75;1.92;;;23.10;97.40;;;;;;5018832;28;20104;-74
2023/06/26 09:20:15;;;;;;;7.53;1.83;;;23.00;97.20;;;;;;5032390;28;20556;-74
2023/06/26 09:22:43;;;;;;;8.90;2.13;;;23.10;97.70;;;;;;5032507;28;20480;-74
2023/06/26 09:25:10;;;;;;;7.45;2.25;;;23.20;97.20;;;;;;5032374;28;20032;-74
2023/06/26 09:27:36;;;;;;;9.90;2.22;;;23.30;97.20;;;;;;5032152;28;20026;-74
2023/06/26 09:30:07;;;;;;;9.60;1.95;;;23.50;97.30;;;;;;5030823;28;20022;-74
2023/06/26 09:32:36;;;;;;;6.22;2.10;;;23.60;96.90;;;;;;5030363;28;20025;-74
2023/06/26 09:35:03;;;;;;;8.57;1.88;;;23.50;96.80;;;;;;5021132;28;20480;-76
2023/06/26 09:37:29;;;;;;;7.53;2.35;;;23.40;96.80;;;;;;5030778;28;20022;-74
2023/06/26 09:39:55;;;;;;;9.43;2.25;;;23.40;96.70;;;;;;5031671;28;20024;-74
2023/06/26 09:42:23;;;;;;;7.70;2.20;;;23.50;96.70;;;;;;5031846;28;20468;-74
2023/06/26 09:44:49;;;;;;;9.63;2.50;;;23.70;96.40;;;;;;5031637;28;20148;-74
2023/06/26 09:47:19;;;;;;;12.38;2.38;;;23.70;96.10;;;;;;5025223;28;20121;-74
2023/06/26 09:49:45;;;;;;;9.20;2.10;;;23.70;96.10;;;;;;5031865;28;20028;-74
2023/06/26 09:52:16;;;;;;;7.80;2.00;;;23.60;95.90;;;;;;5031594;28;20049;-74
2023/06/26 09:54:43;;;;;;;7.53;1.85;;;23.70;95.80;;;;;;5032019;28;20140;-73
2023/06/26 09:57:18;;;;;;;11.02;2.20;;;23.60;95.10;;;;;;5029520;28;20400;-74
2023/06/26 09:59:45;;;;;;;7.65;2.00;;;23.50;95.00;;;;;;5020253;28;20026;-74
2023/06/26 10:02:11;;;;;;;8.88;1.90;;;23.50;95.10;;;;;;5031467;28;20022;-74
2023/06/26 10:04:37;;;;;;;9.05;2.00;;;23.70;95.10;;;;;;5025155;28;20093;-74
2023/06/26 10:07:07;;;;;;;7.15;1.58;;;23.80;94.30;;;;;;5025251;28;20021;-74
2023/06/26 10:09:37;;;;;;;7.32;1.88;;;23.90;93.70;;;;;;5027426;28;20445;-74
2023/06/26 10:12:09;;;;;;;11.70;2.08;;;24.00;93.30;;;;;;5023913;28;20116;-73
2023/06/26 10:14:37;;;;;;;5.70;1.65;;;23.90;93.10;;;;;;5027325;28;20581;-74
2023/06/26 10:17:18;;;;;;;8.07;2.00;;;23.90;93.10;;;;;;5031481;28;20128;-74
2023/06/26 10:19:45;;;;;;;6.75;1.85;;;24.00;92.70;;;;;;5030968;28;20032;-74
2023/06/26 10:22:17;;;;;;;4.78;1.20;;;24.00;92.40;;;;;;5030559;28;20036;-73
2023/06/26 10:24:45;;;;;;;7.28;1.45;;;23.90;91.90;;;;;;5031218;28;20035;-73
2023/06/26 10:27:14;;;;;;;4.28;1.40;;;23.80;91.30;;;;;;5029637;28;20468;-75
2023/06/26 10:29:41;;;;;;;5.55;1.50;;;23.90;91.10;;;;;;5029836;28;20052;-75
2023/06/26 10:32:08;;;;;;;5.88;1.70;;;24.00;91.30;;;;;;5031430;28;20021;-75
2023/06/26 10:34:33;;;;;;;7.95;1.60;;;24.10;90.70;;;;;;5020527;28;20476;-75
2023/06/26 10:37:00;;;;;;;8.27;1.65;;;24.20;90.40;;;;;;5030651;28;20029;-75
2023/06/26 10:39:27;;;;;;;7.45;1.60;;;24.30;90.10;;;;;;5029224;28;20021;-74
2023/06/26 10:41:55;;;;;;;5.95;1.58;;;24.30;88.50;;;;;;5035438;28;20034;-73
2023/06/26 10:44:21;;;;;;;4.93;1.30;;;24.20;88.90;;;;;;5027354;28;20162;-72
2023/06/26 10:46:55;;;;;;;7.78;1.63;;;24.10;88.40;;;;;;5029383;28;20451;-73
2023/06/26 10:49:27;;;;;;;7.40;1.50;;;24.20;87.80;;;;;;5033400;28;20025;-74
2023/06/26 10:51:55;;;;;;;5.88;1.50;;;24.10;87.50;;;;;;5030296;28;20106;-75
2023/06/26 10:54:21;;;;;;;6.70;1.60;;;23.90;87.00;;;;;;5025498;28;20054;-75
2023/06/26 10:56:49;;;;;;;7.38;1.35;;;23.80;87.40;;;;;;5032015;28;20041;-74
2023/06/26 10:59:29;;;;;;;7.47;1.55;;;23.60;88.00;;;;;;5023752;28;20046;-75
2023/06/26 11:02:06;;;;;;;5.75;1.63;;;23.50;89.00;;;;;;5025579;28;20053;-75
2023/06/26 11:04:47;;;;;;;4.18;1.20;;;23.60;89.20;;;;;;5032197;28;20026;-75
2023/06/26 11:07:23;;;;;;;5.75;1.58;;;23.90;87.20;;;;;;5025417;28;20025;-74
2023/06/26 11:10:00;;;;;;;5.95;1.60;;;24.00;86.60;;;;;;5029837;28;20025;-72
2023/06/26 11:12:43;;;;;;;5.93;1.55;;;24.20;85.00;;;;;;5034862;28;20052;-74
2023/06/26 11:15:13;;;;;;;3.88;1.30;;;24.00;85.00;;;;;;5029762;28;20059;-73
2023/06/26 11:17:40;;;;;;;5.13;1.60;;;23.90;85.50;;;;;;5030292;28;20156;-74
2023/06/26 11:20:10;;;;;;;4.97;1.27;;;23.80;85.80;;;;;;5026646;28;20021;-71
2023/06/26 11:22:37;;;;;;;4.88;1.52;;;23.70;85.60;;;;;;5034444;28;20508;-71
2023/06/26 11:25:04;;;;;;;4.85;1.50;;;23.70;86.50;;;;;;5034569;28;20029;-70
2023/06/26 11:27:37;;;;;;;4.40;1.17;;;23.60;86.40;;;;;;5034494;28;20056;-71
2023/06/26 11:30:05;;;;;;;5.25;1.70;;;23.60;86.30;;;;;;5034476;28;20485;-71
2023/06/26 11:32:32;;;;;;;3.45;1.42;;;23.60;86.50;;;;;;5034306;28;20009;-71
2023/06/26 11:34:58;;;;;;;2.72;1.30;;;23.60;86.20;;;;;;5034247;28;20024;-72
2023/06/26 11:37:25;;;;;;;4.95;1.38;;;23.60;85.60;;;;;;5034062;28;20025;-76
2023/06/26 11:39:51;;;;;;;2.42;1.27;;;23.60;85.10;;;;;;5034625;28;20049;-72
2023/06/26 11:42:17;;;;;;;7.03;1.30;;;23.70;82.70;;;;;;5025757;28;20018;-71
2023/06/26 11:44:44;;;;;;;4.65;1.40;;;23.70;82.30;;;;;;5025235;28;20100;-78
2023/06/26 11:47:19;;;;;;;3.80;1.00;;;23.80;81.90;;;;;;5027942;28;20034;-75
2023/06/26 11:49:46;;;;;;;2.33;1.20;;;23.90;80.70;;;;;;5034245;28;20018;-74
2023/06/26 11:52:18;;;;;;;6.13;1.83;;;24.00;80.30;;;;;;5023690;28;20036;-75
2023/06/26 11:54:45;;;;;;;8.93;1.50;;;24.10;80.50;;;;;;5031090;28;20447;-74
2023/06/26 11:57:15;;;;;;;5.38;1.40;;;24.40;80.20;;;;;;5032971;28;20108;-74
2023/06/26 11:59:41;;;;;;;5.75;1.63;;;24.60;78.90;;;;;;5016520;28;20026;-74
2023/06/26 12:02:10;;;;;;;4.82;1.20;;;24.70;78.30;;;;;;5023817;28;20096;-74
2023/06/26 12:04:38;;;;;;;6.25;1.33;;;24.70;77.40;;;;;;5023299;28;20480;-73
2023/06/26 12:07:07;;;;;;;4.97;1.20;;;24.60;77.00;;;;;;5025541;28;20422;-74
2023/06/26 12:09:33;;;;;;;5.07;1.58;;;24.30;77.00;;;;;;5028859;28;20021;-74
2023/06/26 12:11:59;;;;;;;8.25;1.48;;;24.10;77.90;;;;;;5026304;28;20025;-74
2023/06/26 12:14:28;;;;;;;4.10;1.42;;;24.10;78.90;;;;;;5024753;28;20072;-74
2023/06/26 12:16:54;;;;;;;7.40;1.40;;;24.20;78.10;;;;;;5023265;28;20053;-74
2023/06/26 12:19:26;;;;;;;2.90;1.13;;;24.10;78.20;;;;;;5028593;28;20071;-74
2023/06/26 12:21:52;;;;;;;4.05;1.45;;;24.10;78.60;;;;;;5028373;28;20475;-74
2023/06/26 12:24:22;;;;;;;5.18;1.30;;;24.00;78.70;;;;;;5031153;28;20014;-74
2023/06/26 12:26:55;;;;;;;4.00;1.50;;;24.00;79.30;;;;;;5023406;28;20518;-74
2023/06/26 12:29:22;;;;;;;5.30;1.48;;;24.10;79.70;;;;;;5024495;28;20013;-74
2023/06/26 12:31:52;;;;;;;8.38;1.48;;;24.20;78.70;;;;;;5027496;28;20499;-74
2023/06/26 12:34:26;;;;;;;3.90;1.20;;;24.10;79.30;;;;;;5025967;28;20032;-74
2023/06/26 12:36:59;;;;;;;4.00;1.60;;;24.20;78.80;;;;;;5027246;28;20037;-74
2023/06/26 12:39:27;;;;;;;7.47;1.48;;;24.40;78.60;;;;;;5021380;28;20410;-74